Observations for MILANO MALPENSA, Italy (LIMC)

LIMC 200620Z 36006KT CAVOK 13/07 Q1028 NOSIG
LIMC 200550Z 36006KT CAVOK 11/07 Q1028 NOSIG
LIMC 200520Z 36005KT CAVOK 09/06 Q1028 NOSIG
LIMC 200450Z 01009KT CAVOK 09/06 Q1028 NOSIG
LIMC 200420Z 35007KT CAVOK 09/05 Q1027 NOSIG
LIMC 200350Z 36007KT CAVOK 09/05 Q1027 NOSIG
LIMC 200320Z 36005KT CAVOK 08/05 Q1028 NOSIG
LIMC 200250Z 02006KT CAVOK 09/05 Q1028 NOSIG
LIMC 200220Z 01006KT CAVOK 09/05 Q1028 NOSIG
LIMC 200150Z 01006KT CAVOK 08/05 Q1028 NOSIG
LIMC 200120Z 36006KT CAVOK 08/05 Q1028 NOSIG
LIMC 200050Z 01005KT CAVOK 08/05 Q1028 NOSIG
LIMC 200020Z 36006KT CAVOK 08/05 Q1028 NOSIG
LIMC 192350Z 01005KT CAVOK 08/05 Q1028 NOSIG
LIMC 192320Z 02004KT CAVOK 09/06 Q1028 NOSIG
LIMC 192250Z 02004KT CAVOK 10/06 Q1028 NOSIG
LIMC 192220Z 03003KT CAVOK 10/06 Q1028 NOSIG
LIMC 192150Z 01004KT CAVOK 10/06 Q1029 NOSIG
LIMC 192120Z 03003KT CAVOK 10/05 Q1028 NOSIG
LIMC 192050Z 03003KT CAVOK 12/06 Q1028 NOSIG
LIMC 192020Z VRB01KT CAVOK 13/05 Q1028 NOSIG
LIMC 191950Z VRB01KT CAVOK 15/05 Q1028 NOSIG
LIMC 191920Z 15002KT CAVOK 16/05 Q1028 NOSIG
LIMC 191850Z 19003KT CAVOK 17/05 Q1028 NOSIG
LIMC 191820Z 20004KT CAVOK 18/04 Q1028 NOSIG
LIMC 191750Z 25005KT CAVOK 19/04 Q1028 NOSIG
LIMC 191720Z 24006KT 210V290 CAVOK 20/04 Q1028 NOSIG
LIMC 191650Z 22004KT 160V280 CAVOK 20/04 Q1028 NOSIG
LIMC 191620Z 23005KT 200V270 9999 FEW030 21/03 Q1028 NOSIG  
LIMC 191550Z 22003KT CAVOK 21/05 Q1028 NOSIG
LIMC 191450Z VRB03KT CAVOK 21/04 Q1028 NOSIG
LIMC 191420Z 23005KT 160V280 CAVOK 21/05 Q1028 NOSIG
LIMC 191350Z VRB03KT 9999 FEW030 21/04 Q1028 NOSIG  
LIMC 191320Z 14006KT 090V220 9999 FEW030 20/04 Q1029 NOSIG  
LIMC 191250Z 22006KT 160V290 9999 SCT030 20/05 Q1029 NOSIG  
LIMC 191220Z 19006KT 120V250 9999 SCT030 20/06 Q1029 NOSIG  
LIMC 191150Z 15007KT 110V200 9999 FEW060 19/05 Q1029 NOSIG  
LIMC 191120Z 16006KT 110V220 9999 FEW050 20/04 Q1030 NOSIG  
LIMC 191050Z 19005KT 160V240 9999 FEW060 19/04 Q1030 NOSIG  
LIMC 191020Z VRB03KT 9999 FEW060 19/05 Q1030 NOSIG  
LIMC 190950Z 11006KT 010V170 CAVOK 19/04 Q1030 NOSIG
LIMC 190920Z 09004KT 030V140 CAVOK 18/04 Q1031 NOSIG
LIMC 190850Z 12006KT 080V150 CAVOK 18/04 Q1031 NOSIG
LIMC 190820Z 12005KT 070V170 CAVOK 18/05 Q1031 NOSIG
LIMC 190750Z 14006KT 100V160 CAVOK 17/04 Q1031 NOSIG
LIMC 190720Z 12007KT 090V150 CAVOK 16/06 Q1030 NOSIG
LIMC 190650Z 10005KT 9999 FEW070 16/06 Q1030 NOSIG  
LIMC 190620Z 05003KT 360V070 CAVOK 14/08 Q1030 NOSIG
LIMC 190550Z 02002KT CAVOK 11/08 Q1030 NOSIG